createdAt,value
2022-08-24T00:00:31.679Z,18.15
2022-08-24T00:01:31.651Z,18.13
2022-08-24T00:02:31.732Z,18.13
2022-08-24T00:03:34.425Z,18.09
2022-08-24T00:04:31.999Z,18.09
2022-08-24T00:05:31.590Z,18.06
2022-08-24T00:06:31.580Z,18.03
2022-08-24T00:07:31.583Z,18.06
2022-08-24T00:08:31.559Z,18.07
2022-08-24T00:09:31.571Z,18.07
2022-08-24T00:10:31.542Z,18.06
2022-08-24T00:11:31.540Z,18.04
2022-08-24T00:12:31.510Z,18.04
2022-08-24T00:13:33.168Z,18.04
2022-08-24T00:14:32.486Z,18.02
2022-08-24T00:15:31.467Z,18.02
2022-08-24T00:16:31.530Z,18.02
2022-08-24T00:17:31.450Z,18.00
2022-08-24T00:18:31.421Z,18.00
2022-08-24T00:19:31.413Z,17.99
2022-08-24T00:20:31.409Z,17.99
2022-08-24T00:21:31.390Z,18.00
2022-08-24T00:22:31.421Z,17.99
2022-08-24T00:23:31.372Z,17.94
2022-08-24T00:24:31.361Z,17.94
2022-08-24T00:25:31.360Z,17.87
2022-08-24T00:26:31.340Z,17.84
2022-08-24T00:27:31.374Z,17.78
2022-08-24T00:28:31.314Z,17.73
2022-08-24T00:29:31.302Z,17.71
2022-08-24T00:30:31.282Z,17.70
2022-08-24T00:31:31.301Z,17.71
2022-08-24T00:32:31.351Z,17.71
2022-08-24T00:33:31.244Z,17.71
2022-08-24T00:34:31.223Z,17.69
2022-08-24T00:35:31.233Z,17.70
2022-08-24T00:36:31.214Z,17.69
2022-08-24T00:37:31.196Z,17.66
2022-08-24T00:38:31.184Z,17.64
2022-08-24T00:39:31.171Z,17.63
2022-08-24T00:40:31.265Z,17.64
2022-08-24T00:41:31.182Z,17.66
2022-08-24T00:42:31.203Z,17.66
2022-08-24T00:43:31.113Z,17.63
2022-08-24T00:44:31.154Z,17.63
2022-08-24T00:45:31.143Z,17.63
2022-08-24T00:46:31.083Z,17.63
2022-08-24T00:47:31.097Z,17.63
2022-08-24T00:48:31.085Z,17.63
2022-08-24T00:49:31.064Z,17.63
2022-08-24T00:50:31.121Z,17.62
2022-08-24T00:51:31.104Z,17.63
2022-08-24T00:52:31.005Z,17.63
2022-08-24T00:53:31.024Z,17.64
2022-08-24T00:54:30.977Z,17.66
2022-08-24T00:55:30.974Z,17.67
2022-08-24T00:56:31.284Z,17.64
2022-08-24T00:57:30.965Z,17.63
2022-08-24T00:58:30.957Z,17.59
2022-08-24T00:59:30.937Z,17.57
2022-08-24T01:00:30.905Z,17.59
2022-08-24T01:01:30.945Z,17.54
2022-08-24T01:02:30.923Z,17.54
2022-08-24T01:03:30.858Z,17.55
2022-08-24T01:04:30.845Z,17.53
2022-08-24T01:05:30.846Z,17.51
2022-08-24T01:06:30.829Z,17.53
2022-08-24T01:07:30.817Z,17.54
2022-08-24T01:08:30.826Z,17.54
2022-08-24T01:09:30.817Z,17.53
2022-08-24T01:10:30.768Z,17.53
2022-08-24T01:11:33.725Z,17.54
2022-08-24T01:12:30.775Z,17.57
2022-08-24T01:13:30.729Z,17.57
2022-08-24T01:14:30.707Z,17.62
2022-08-24T01:15:30.705Z,17.59
2022-08-24T01:16:30.732Z,17.55
2022-08-24T01:17:33.027Z,17.55
2022-08-24T01:18:30.677Z,17.51
2022-08-24T01:19:30.667Z,17.50
2022-08-24T01:20:30.649Z,17.50
2022-08-24T01:21:30.637Z,17.47
2022-08-24T01:22:30.665Z,17.48
2022-08-24T01:23:36.688Z,17.50
2022-08-24T01:24:31.598Z,17.54
2022-08-24T01:25:30.579Z,17.57
2022-08-24T01:26:30.568Z,17.62
2022-08-24T01:27:30.545Z,17.69
2022-08-24T01:28:30.528Z,17.70
2022-08-24T01:29:30.998Z,17.76
2022-08-24T01:30:36.400Z,17.81
2022-08-24T01:31:31.578Z,17.84
2022-08-24T01:32:30.475Z,17.85
2022-08-24T01:33:30.470Z,17.88
2022-08-24T01:34:30.458Z,17.91
2022-08-24T01:35:30.549Z,17.94
2022-08-24T01:36:30.449Z,17.97
2022-08-24T01:37:30.430Z,18.02
2022-08-24T01:38:30.415Z,18.06
2022-08-24T01:39:30.427Z,18.06
2022-08-24T01:40:30.449Z,18.10
2022-08-24T01:41:30.396Z,18.12
2022-08-24T01:42:30.358Z,18.15
2022-08-24T01:43:30.352Z,18.17
2022-08-24T01:44:30.341Z,18.21
2022-08-24T01:45:30.321Z,18.24
2022-08-24T01:46:30.391Z,18.25
2022-08-24T01:47:30.300Z,18.28
2022-08-24T01:48:30.283Z,18.31
2022-08-24T01:49:30.273Z,18.34
2022-08-24T01:50:30.352Z,18.34
2022-08-24T01:51:30.241Z,18.37
2022-08-24T01:52:54.710Z,18.40
2022-08-24T01:53:31.229Z,18.40
2022-08-24T01:54:30.200Z,18.44
2022-08-24T01:55:30.192Z,18.44
2022-08-24T01:56:30.395Z,18.46
2022-08-24T01:57:30.162Z,18.47
2022-08-24T01:58:30.153Z,18.47
2022-08-24T01:59:30.174Z,18.50
2022-08-24T02:00:30.165Z,18.50
2022-08-24T02:01:30.187Z,18.50
2022-08-24T02:02:30.159Z,18.49
2022-08-24T02:03:30.411Z,18.50
2022-08-24T02:04:30.154Z,18.52
2022-08-24T02:05:30.093Z,18.55
2022-08-24T02:06:30.063Z,18.54
2022-08-24T02:07:30.032Z,18.54
2022-08-24T02:08:30.011Z,18.52
2022-08-24T02:09:32.899Z,18.52
2022-08-24T02:10:30.003Z,18.52
2022-08-24T02:11:30.004Z,18.52
2022-08-24T02:12:29.972Z,18.54
2022-08-24T02:13:29.965Z,18.55
2022-08-24T02:14:30.714Z,18.55
2022-08-24T02:15:29.934Z,18.55
2022-08-24T02:16:29.997Z,18.57
2022-08-24T02:17:29.925Z,18.55
2022-08-24T02:18:29.902Z,18.57
2022-08-24T02:19:29.885Z,18.57
2022-08-24T02:20:29.867Z,18.58
2022-08-24T02:21:29.870Z,18.55
2022-08-24T02:22:29.852Z,18.52
2022-08-24T02:23:29.846Z,18.54
2022-08-24T02:24:29.814Z,18.50
2022-08-24T02:25:29.813Z,18.49
2022-08-24T02:26:31.488Z,18.47
2022-08-24T02:27:29.786Z,18.44
2022-08-24T02:28:29.763Z,18.42
2022-08-24T02:29:29.766Z,18.39
2022-08-24T02:30:29.734Z,18.40
2022-08-24T02:31:29.806Z,18.40
2022-08-24T02:32:29.705Z,18.39
2022-08-24T02:33:29.707Z,18.36
2022-08-24T02:34:29.687Z,18.33
2022-08-24T02:35:29.680Z,18.28
2022-08-24T02:36:29.647Z,18.25
2022-08-24T02:37:29.655Z,18.21
2022-08-24T02:38:29.637Z,18.19
2022-08-24T02:39:29.625Z,18.18
2022-08-24T02:40:29.714Z,18.18
2022-08-24T02:41:29.596Z,18.17
2022-08-24T02:42:29.577Z,18.15
2022-08-24T02:43:29.570Z,18.12
2022-08-24T02:44:29.570Z,18.09
2022-08-24T02:45:29.578Z,18.06
2022-08-24T02:46:29.564Z,18.02
2022-08-24T02:47:38.142Z,17.99
2022-08-24T02:48:30.486Z,17.94
2022-08-24T02:49:29.477Z,17.92
2022-08-24T02:50:29.469Z,17.91
2022-08-24T02:51:30.475Z,17.87
2022-08-24T02:52:30.429Z,17.88
2022-08-24T02:53:29.459Z,17.91
2022-08-24T02:54:29.421Z,17.88
2022-08-24T02:55:29.419Z,17.89
2022-08-24T02:56:29.389Z,17.88
2022-08-24T02:57:29.399Z,17.89
2022-08-24T02:58:29.369Z,17.89
2022-08-24T02:59:29.360Z,17.89
2022-08-24T03:00:29.351Z,17.87
2022-08-24T03:01:30.454Z,17.85
2022-08-24T03:02:29.361Z,17.87
2022-08-24T03:03:29.352Z,17.85
2022-08-24T03:04:29.280Z,17.87
2022-08-24T03:05:29.269Z,17.88
2022-08-24T03:06:29.277Z,17.87
2022-08-24T03:07:29.239Z,17.85
2022-08-24T03:08:29.296Z,17.82
2022-08-24T03:09:29.229Z,17.79
2022-08-24T03:10:29.210Z,17.78
2022-08-24T03:11:29.221Z,17.76
2022-08-24T03:12:29.195Z,17.76
2022-08-24T03:13:29.185Z,17.74
2022-08-24T03:14:29.159Z,17.73
2022-08-24T03:15:29.206Z,17.73
2022-08-24T03:16:29.162Z,17.71
2022-08-24T03:17:29.132Z,17.69
2022-08-24T03:18:29.114Z,17.67
2022-08-24T03:19:29.126Z,17.64
2022-08-24T03:20:29.092Z,17.59
2022-08-24T03:21:29.102Z,17.54
2022-08-24T03:22:29.052Z,17.53
2022-08-24T03:23:29.085Z,17.51
2022-08-24T03:24:30.053Z,17.51
2022-08-24T03:25:29.023Z,17.53
2022-08-24T03:26:29.030Z,17.51
2022-08-24T03:27:36.251Z,17.50
2022-08-24T03:28:28.978Z,17.50
2022-08-24T03:29:28.968Z,17.53
2022-08-24T03:30:28.982Z,17.53
2022-08-24T03:31:28.938Z,17.55
2022-08-24T03:32:28.929Z,17.55
2022-08-24T03:33:28.909Z,17.57
2022-08-24T03:34:28.928Z,17.54
2022-08-24T03:35:28.885Z,17.55
2022-08-24T03:36:28.880Z,17.55
2022-08-24T03:37:28.895Z,17.54
2022-08-24T03:38:28.848Z,17.54
2022-08-24T03:39:28.887Z,17.53
2022-08-24T03:40:28.847Z,17.54
2022-08-24T03:41:28.810Z,17.53
2022-08-24T03:42:28.799Z,17.48
2022-08-24T03:43:28.810Z,17.46
2022-08-24T03:44:28.770Z,17.43
2022-08-24T03:45:28.751Z,17.44
2022-08-24T03:46:28.765Z,17.43
2022-08-24T03:47:28.731Z,17.41
2022-08-24T03:48:28.720Z,17.40
2022-08-24T03:49:28.719Z,17.41
2022-08-24T03:50:28.699Z,17.41
2022-08-24T03:51:28.672Z,17.43
2022-08-24T03:52:33.442Z,17.43
2022-08-24T03:53:29.658Z,17.41
2022-08-24T03:54:28.662Z,17.41
2022-08-24T03:55:28.630Z,17.36
2022-08-24T03:56:28.632Z,17.35
2022-08-24T03:57:28.602Z,17.32
2022-08-24T03:58:28.592Z,17.32
2022-08-24T03:59:28.581Z,17.33
2022-08-24T04:00:28.579Z,17.33
2022-08-24T04:01:28.619Z,17.35
2022-08-24T04:02:32.764Z,17.33
2022-08-24T04:03:28.522Z,17.36
2022-08-24T04:04:28.519Z,17.36
2022-08-24T04:05:28.509Z,17.35
2022-08-24T04:06:29.487Z,17.35
2022-08-24T04:07:28.584Z,17.36
2022-08-24T04:08:28.484Z,17.35
2022-08-24T04:09:28.451Z,17.35
2022-08-24T04:10:28.431Z,17.36
2022-08-24T04:11:28.412Z,17.35
2022-08-24T04:12:28.412Z,17.36
2022-08-24T04:13:28.401Z,17.30
2022-08-24T04:14:28.394Z,17.29
2022-08-24T04:15:28.371Z,17.26
2022-08-24T04:16:28.375Z,17.25
2022-08-24T04:17:28.355Z,17.23
2022-08-24T04:18:28.907Z,17.22
2022-08-24T04:19:28.344Z,17.23
2022-08-24T04:20:28.314Z,17.22
2022-08-24T04:21:28.283Z,17.20
2022-08-24T04:22:28.282Z,17.18
2022-08-24T04:23:36.522Z,17.15
2022-08-24T04:24:29.282Z,17.14
2022-08-24T04:25:28.232Z,17.14
2022-08-24T04:26:45.544Z,17.17
2022-08-24T04:27:29.212Z,17.20
2022-08-24T04:28:28.193Z,17.20
2022-08-24T04:29:28.194Z,17.20
2022-08-24T04:30:28.224Z,17.18
2022-08-24T04:31:28.606Z,17.14
2022-08-24T04:32:28.175Z,17.13
2022-08-24T04:33:28.140Z,17.11
2022-08-24T04:34:28.126Z,17.11
2022-08-24T04:35:28.113Z,17.13
2022-08-24T04:36:28.116Z,17.15
2022-08-24T04:37:29.310Z,17.14
2022-08-24T04:38:28.054Z,17.17
2022-08-24T04:39:28.046Z,17.17
2022-08-24T04:40:28.067Z,17.17
2022-08-24T04:41:31.413Z,17.20
2022-08-24T04:42:28.024Z,17.18
2022-08-24T04:43:27.996Z,17.18
2022-08-24T04:44:27.986Z,17.22
2022-08-24T04:45:28.038Z,17.25
2022-08-24T04:46:27.973Z,17.25
2022-08-24T04:47:27.950Z,17.28
2022-08-24T04:48:27.947Z,17.28
2022-08-24T04:49:27.917Z,17.28
2022-08-24T04:50:27.918Z,17.28
2022-08-24T04:51:29.318Z,17.29
2022-08-24T04:52:28.898Z,17.28
2022-08-24T04:53:27.867Z,17.29
2022-08-24T04:54:27.865Z,17.30
2022-08-24T04:55:27.846Z,17.33
2022-08-24T04:56:27.838Z,17.36
2022-08-24T04:57:27.841Z,17.41
2022-08-24T04:58:27.838Z,17.46
2022-08-24T04:59:27.806Z,17.50
2022-08-24T05:00:27.942Z,17.51
2022-08-24T05:01:27.764Z,17.57
2022-08-24T05:02:27.805Z,17.62
2022-08-24T05:03:27.758Z,17.64
2022-08-24T05:04:27.736Z,17.66
2022-08-24T05:05:27.719Z,17.70
2022-08-24T05:06:27.707Z,17.71
2022-08-24T05:07:27.687Z,17.70
2022-08-24T05:08:27.677Z,17.70
2022-08-24T05:09:27.693Z,17.70
2022-08-24T05:10:30.896Z,17.71
2022-08-24T05:11:28.642Z,17.74
2022-08-24T05:12:27.630Z,17.79
2022-08-24T05:13:27.616Z,17.82
2022-08-24T05:14:28.985Z,17.87
2022-08-24T05:15:27.640Z,17.91
2022-08-24T05:16:27.646Z,17.92
2022-08-24T05:17:27.581Z,17.97
2022-08-24T05:18:27.570Z,17.99
2022-08-24T05:19:27.529Z,17.99
2022-08-24T05:20:27.619Z,18.00
2022-08-24T05:21:27.558Z,17.99
2022-08-24T05:22:27.489Z,18.00
2022-08-24T05:23:27.481Z,18.02
2022-08-24T05:24:27.470Z,18.02
2022-08-24T05:25:27.462Z,18.03
2022-08-24T05:26:27.502Z,18.04
2022-08-24T05:27:27.459Z,18.06
2022-08-24T05:28:27.442Z,18.09
2022-08-24T05:29:27.412Z,18.13
2022-08-24T05:30:27.403Z,18.19
2022-08-24T05:31:27.460Z,18.22
2022-08-24T05:32:27.383Z,18.25
2022-08-24T05:33:27.391Z,18.27
2022-08-24T05:34:27.342Z,18.31
2022-08-24T05:35:27.331Z,18.34
2022-08-24T05:36:27.322Z,18.36
2022-08-24T05:37:27.334Z,18.40
2022-08-24T05:38:27.292Z,18.42
2022-08-24T05:39:27.282Z,18.46
2022-08-24T05:40:33.418Z,18.50
2022-08-24T05:41:28.276Z,18.52
2022-08-24T05:42:27.253Z,18.52
2022-08-24T05:43:27.233Z,18.54
2022-08-24T05:44:30.742Z,18.58
2022-08-24T05:45:27.224Z,18.61
2022-08-24T05:46:29.218Z,18.65
2022-08-24T05:47:27.214Z,18.68
2022-08-24T05:48:27.243Z,18.72
2022-08-24T05:49:27.143Z,18.77
2022-08-24T05:50:27.132Z,18.80
2022-08-24T05:51:27.154Z,18.86
2022-08-24T05:52:27.114Z,18.92
2022-08-24T05:53:27.096Z,18.95
2022-08-24T05:54:27.149Z,18.98
2022-08-24T05:55:27.075Z,18.98
2022-08-24T05:56:31.768Z,18.99
2022-08-24T05:57:28.045Z,19.06
2022-08-24T05:58:31.250Z,19.15
2022-08-24T05:59:27.024Z,19.20
2022-08-24T06:00:27.010Z,19.18
2022-08-24T06:01:27.138Z,19.20
2022-08-24T06:02:27.130Z,19.28
2022-08-24T06:03:27.015Z,19.29
2022-08-24T06:04:26.946Z,19.31
2022-08-24T06:05:26.977Z,19.31
2022-08-24T06:06:26.928Z,19.32
2022-08-24T06:07:26.917Z,19.33
2022-08-24T06:08:26.907Z,19.42
2022-08-24T06:09:26.897Z,19.48
2022-08-24T06:10:36.591Z,19.57
2022-08-24T06:11:30.301Z,19.66
2022-08-24T06:12:26.849Z,19.73
2022-08-24T06:13:26.987Z,19.79
2022-08-24T06:14:27.225Z,19.88
2022-08-24T06:15:26.854Z,19.94
2022-08-24T06:16:26.837Z,20.02
2022-08-24T06:17:26.881Z,20.13
2022-08-24T06:18:26.767Z,20.27
2022-08-24T06:19:27.558Z,20.33
2022-08-24T06:20:26.803Z,20.46
2022-08-24T06:21:28.244Z,20.53
2022-08-24T06:22:26.729Z,20.46
2022-08-24T06:23:26.710Z,20.39
2022-08-24T06:24:26.697Z,20.43
2022-08-24T06:25:26.678Z,20.43
2022-08-24T06:26:26.670Z,20.34
2022-08-24T06:27:26.681Z,20.27
2022-08-24T06:28:26.641Z,20.27
2022-08-24T06:29:26.619Z,20.31
2022-08-24T06:30:30.603Z,20.35
2022-08-24T06:31:26.731Z,20.46
2022-08-24T06:32:29.040Z,20.53
2022-08-24T06:33:26.660Z,20.58
2022-08-24T06:34:26.568Z,20.64
2022-08-24T06:35:26.575Z,20.66
2022-08-24T06:36:26.559Z,20.71
2022-08-24T06:37:26.542Z,20.76
2022-08-24T06:38:26.523Z,20.83
2022-08-24T06:39:26.515Z,20.89
2022-08-24T06:40:26.653Z,20.99
2022-08-24T06:41:26.473Z,21.05
2022-08-24T06:42:26.463Z,21.11
2022-08-24T06:43:27.101Z,21.06
2022-08-24T06:44:26.439Z,20.96
2022-08-24T06:45:26.452Z,20.95
2022-08-24T06:46:29.465Z,20.90
2022-08-24T06:47:27.402Z,20.81
2022-08-24T06:48:26.400Z,20.69
2022-08-24T06:49:26.360Z,20.51
2022-08-24T06:50:26.392Z,20.43
2022-08-24T06:51:26.340Z,20.43
2022-08-24T06:52:26.322Z,20.50
2022-08-24T06:53:26.335Z,20.66
2022-08-24T06:54:26.306Z,20.74
2022-08-24T06:55:26.293Z,20.86
2022-08-24T06:56:26.306Z,21.05
2022-08-24T06:57:26.265Z,21.21
2022-08-24T06:58:27.704Z,21.34
2022-08-24T06:59:26.296Z,21.48
2022-08-24T07:00:26.225Z,21.48
2022-08-24T07:01:26.968Z,21.59
2022-08-24T07:02:27.559Z,21.29
2022-08-24T07:03:26.996Z,21.24
2022-08-24T07:04:28.149Z,21.13
2022-08-24T07:05:26.181Z,21.19
2022-08-24T07:06:26.164Z,21.11
2022-08-24T07:07:26.157Z,21.04
2022-08-24T07:08:26.127Z,20.98
2022-08-24T07:09:26.104Z,20.84
2022-08-24T07:10:26.134Z,20.72
2022-08-24T07:11:26.183Z,20.62
2022-08-24T07:12:26.075Z,20.54
2022-08-24T07:13:26.068Z,20.58
2022-08-24T07:14:26.037Z,20.72
2022-08-24T07:15:26.017Z,20.76
2022-08-24T07:16:26.148Z,20.69
2022-08-24T07:17:26.007Z,20.64
2022-08-24T07:18:26.016Z,20.59
2022-08-24T07:19:26.007Z,20.59
2022-08-24T07:20:25.978Z,20.64
2022-08-24T07:21:25.962Z,20.62
2022-08-24T07:22:25.949Z,20.61
2022-08-24T07:23:41.366Z,20.61
2022-08-24T07:24:26.929Z,20.66
2022-08-24T07:25:25.908Z,20.87
2022-08-24T07:26:25.891Z,20.96
2022-08-24T07:27:25.900Z,21.02
2022-08-24T07:28:31.531Z,21.16
2022-08-24T07:30:27.802Z,21.24
2022-08-24T07:31:25.862Z,21.26
2022-08-24T07:32:25.810Z,21.17
2022-08-24T07:33:25.842Z,21.11
2022-08-24T07:34:27.741Z,21.19
2022-08-24T07:35:25.782Z,21.23
2022-08-24T07:36:25.770Z,21.23
2022-08-24T07:37:26.833Z,21.27
2022-08-24T07:38:26.759Z,21.20
2022-08-24T07:39:25.740Z,21.21
2022-08-24T07:40:25.761Z,21.19
2022-08-24T07:41:56.670Z,21.23
2022-08-24T07:42:31.785Z,21.39
2022-08-24T07:43:26.724Z,21.46
2022-08-24T07:44:25.710Z,21.48
2022-08-24T07:45:25.652Z,21.50
2022-08-24T07:46:25.715Z,21.50
2022-08-24T07:47:38.590Z,21.56
2022-08-24T07:48:26.611Z,21.59
2022-08-24T07:49:36.457Z,21.66
2022-08-24T07:50:26.593Z,21.74
2022-08-24T07:51:25.615Z,21.88
2022-08-24T07:52:25.581Z,22.04
2022-08-24T07:53:32.442Z,22.19
2022-08-24T07:54:26.544Z,22.25
2022-08-24T07:55:25.525Z,22.25
2022-08-24T07:56:25.514Z,22.34
2022-08-24T07:57:25.514Z,22.38
2022-08-24T07:58:25.483Z,22.43
2022-08-24T07:59:25.473Z,22.47
2022-08-24T08:00:25.453Z,22.49
2022-08-24T08:01:25.467Z,22.37
2022-08-24T08:02:25.424Z,22.35
2022-08-24T08:03:25.455Z,22.38
2022-08-24T08:04:25.396Z,22.44
2022-08-24T08:05:25.396Z,22.49
2022-08-24T08:06:25.386Z,22.57
2022-08-24T08:07:25.378Z,22.68
2022-08-24T08:08:25.356Z,22.77
2022-08-24T08:09:25.364Z,22.87
2022-08-24T08:10:25.577Z,22.93
2022-08-24T08:11:25.317Z,22.75
2022-08-24T08:12:25.396Z,22.62
2022-08-24T08:13:25.285Z,22.59
2022-08-24T08:14:25.356Z,22.64
2022-08-24T08:15:25.322Z,22.67
2022-08-24T08:16:25.275Z,22.64
2022-08-24T08:17:25.228Z,22.68
2022-08-24T08:18:25.227Z,22.69
2022-08-24T08:19:25.204Z,22.75
2022-08-24T08:20:25.187Z,22.75
2022-08-24T08:21:25.189Z,22.80
2022-08-24T08:22:25.170Z,22.83
2022-08-24T08:23:25.168Z,22.80
2022-08-24T08:24:25.160Z,22.64
2022-08-24T08:25:25.154Z,22.37
2022-08-24T08:26:25.120Z,22.37
2022-08-24T08:27:25.111Z,22.38
2022-08-24T08:28:33.117Z,22.41
2022-08-24T08:29:26.090Z,22.49
2022-08-24T08:30:25.070Z,22.52
2022-08-24T08:31:25.606Z,22.53
2022-08-24T08:32:25.031Z,22.54
2022-08-24T08:34:25.009Z,22.56
2022-08-24T08:35:25.014Z,22.38
2022-08-24T08:36:24.990Z,22.31
2022-08-24T08:37:26.126Z,22.31
2022-08-24T08:38:24.962Z,22.37
2022-08-24T08:39:24.942Z,22.46
2022-08-24T08:40:24.954Z,22.50
2022-08-24T08:41:26.742Z,22.54
2022-08-24T08:42:25.013Z,22.54
2022-08-24T08:43:24.902Z,22.59
2022-08-24T08:44:24.883Z,22.65
2022-08-24T08:45:24.871Z,22.69
2022-08-24T08:46:24.885Z,22.75
2022-08-24T08:47:24.902Z,22.78
2022-08-24T08:48:24.831Z,22.87
2022-08-24T08:49:24.827Z,22.92
2022-08-24T08:50:24.814Z,22.96
2022-08-24T08:51:24.790Z,23.02
2022-08-24T08:52:24.786Z,23.08
2022-08-24T08:53:24.795Z,23.09
2022-08-24T08:54:24.758Z,23.12
2022-08-24T08:55:24.745Z,23.14
2022-08-24T08:56:24.986Z,23.17
2022-08-24T08:57:24.715Z,23.11
2022-08-24T08:58:24.726Z,23.05
2022-08-24T08:59:24.697Z,23.04
2022-08-24T09:00:24.674Z,23.08
2022-08-24T09:01:24.725Z,23.17
2022-08-24T09:02:25.676Z,23.31
2022-08-24T09:03:24.644Z,23.42
2022-08-24T09:04:24.677Z,23.50
2022-08-24T09:05:24.628Z,23.55
2022-08-24T09:06:24.607Z,23.70
2022-08-24T09:07:24.598Z,23.64
2022-08-24T09:08:24.577Z,23.58
2022-08-24T09:09:24.558Z,23.45
2022-08-24T09:10:24.558Z,23.55
2022-08-24T09:11:24.534Z,23.65
2022-08-24T09:12:24.518Z,23.60
2022-08-24T09:13:24.507Z,23.60
2022-08-24T09:14:24.495Z,23.62
2022-08-24T09:15:24.486Z,23.53
2022-08-24T09:16:24.518Z,23.62
2022-08-24T09:17:24.460Z,23.65
2022-08-24T09:18:24.450Z,23.65
2022-08-24T09:19:31.488Z,23.52
2022-08-24T09:20:26.231Z,23.45
2022-08-24T09:21:24.410Z,23.46
2022-08-24T09:22:24.400Z,23.57
2022-08-24T09:23:24.384Z,23.70
2022-08-24T09:24:24.380Z,23.83
2022-08-24T09:25:26.516Z,23.85
2022-08-24T09:26:24.340Z,23.87
2022-08-24T09:27:31.400Z,24.01
2022-08-24T09:28:24.310Z,24.12
2022-08-24T09:29:24.300Z,24.23
2022-08-24T09:30:24.283Z,24.38
2022-08-24T09:31:24.463Z,24.39
2022-08-24T09:32:24.281Z,24.44
2022-08-24T09:33:24.275Z,24.39
2022-08-24T09:34:24.253Z,24.39
2022-08-24T09:35:26.330Z,24.45
2022-08-24T09:36:24.262Z,24.54
2022-08-24T09:37:24.203Z,24.68
2022-08-24T09:38:24.190Z,24.75
2022-08-24T09:39:24.787Z,24.69
2022-08-24T09:40:24.234Z,24.77
2022-08-24T09:41:24.150Z,24.87
2022-08-24T09:42:24.133Z,24.73
2022-08-24T09:43:24.123Z,24.56
2022-08-24T09:44:24.114Z,24.61
2022-08-24T09:45:24.112Z,24.67
2022-08-24T09:46:24.148Z,24.75
2022-08-24T09:47:24.077Z,24.80
2022-08-24T09:48:24.077Z,24.94
2022-08-24T09:49:24.064Z,25.13
2022-08-24T09:50:24.035Z,25.17
2022-08-24T09:51:24.085Z,25.17
2022-08-24T09:52:24.007Z,25.25
2022-08-24T09:53:25.949Z,25.31
2022-08-24T09:54:23.997Z,25.43
2022-08-24T09:55:23.975Z,25.50
2022-08-24T09:56:23.955Z,25.54
2022-08-24T09:57:30.715Z,25.67
2022-08-24T09:58:24.937Z,25.80
2022-08-24T09:59:23.936Z,25.80
2022-08-24T10:00:23.897Z,25.68
2022-08-24T10:01:23.969Z,25.67
2022-08-24T10:02:23.950Z,25.74
2022-08-24T10:03:23.889Z,25.71
2022-08-24T10:04:24.974Z,25.50
2022-08-24T10:05:24.022Z,25.47
2022-08-24T10:06:23.829Z,25.28
2022-08-24T10:07:23.819Z,25.15
2022-08-24T10:08:23.807Z,25.10
2022-08-24T10:09:24.420Z,24.82
2022-08-24T10:10:23.776Z,24.59
2022-08-24T10:11:23.772Z,24.53
2022-08-24T10:12:23.760Z,24.42
2022-08-24T10:13:23.742Z,24.45
2022-08-24T10:14:23.729Z,24.60
2022-08-24T10:15:23.741Z,24.73
2022-08-24T10:16:23.794Z,24.94
2022-08-24T10:17:23.692Z,25.07
2022-08-24T10:18:23.681Z,25.28
2022-08-24T10:19:23.664Z,25.53
2022-08-24T10:20:23.668Z,25.64
2022-08-24T10:21:23.661Z,25.83
2022-08-24T10:22:23.621Z,26.11
2022-08-24T10:23:23.612Z,26.25
2022-08-24T10:24:26.618Z,26.43
2022-08-24T10:25:24.612Z,26.64
2022-08-24T10:26:23.571Z,26.83
2022-08-24T10:27:23.604Z,26.86
2022-08-24T10:28:23.574Z,26.95
2022-08-24T10:29:23.618Z,27.09
2022-08-24T10:30:23.712Z,27.17
2022-08-24T10:31:23.547Z,27.32
2022-08-24T10:32:23.505Z,27.29
2022-08-24T10:33:23.583Z,27.21
2022-08-24T10:34:23.527Z,26.95
2022-08-24T10:35:23.482Z,26.83
2022-08-24T10:36:23.455Z,26.49
2022-08-24T10:37:24.250Z,26.44
2022-08-24T10:38:24.245Z,26.21
2022-08-24T10:39:23.543Z,26.15
2022-08-24T10:40:23.455Z,26.15
2022-08-24T10:41:23.384Z,26.18
2022-08-24T10:42:23.367Z,26.22
2022-08-24T10:43:24.048Z,26.06
2022-08-24T10:44:23.365Z,26.02
2022-08-24T10:45:23.426Z,25.99
2022-08-24T10:46:23.327Z,26.09
2022-08-24T10:47:23.317Z,26.12
2022-08-24T10:48:23.307Z,26.21
2022-08-24T10:49:23.288Z,26.12
2022-08-24T10:50:23.278Z,26.05
2022-08-24T10:51:24.327Z,25.86
2022-08-24T10:52:23.247Z,25.91
2022-08-24T10:53:23.231Z,25.91
2022-08-24T10:54:23.217Z,25.98
2022-08-24T10:55:23.247Z,26.11
2022-08-24T10:56:23.189Z,26.29
2022-08-24T10:57:23.248Z,26.25
2022-08-24T10:58:23.168Z,26.09
2022-08-24T10:59:23.160Z,26.05
2022-08-24T11:00:23.479Z,25.94
2022-08-24T11:01:23.223Z,25.87
2022-08-24T11:02:23.161Z,25.90
2022-08-24T11:03:28.105Z,25.90
2022-08-24T11:04:24.160Z,25.87
2022-08-24T11:05:23.092Z,25.91
2022-08-24T11:06:23.073Z,25.89
2022-08-24T11:07:23.062Z,25.90
2022-08-24T11:08:23.051Z,25.91
2022-08-24T11:09:23.023Z,26.12
2022-08-24T11:10:23.282Z,26.31
2022-08-24T11:11:23.063Z,26.36
2022-08-24T11:12:22.994Z,26.35
2022-08-24T11:13:22.994Z,26.29
2022-08-24T11:14:28.163Z,26.39
2022-08-24T11:15:22.955Z,26.61
2022-08-24T11:16:23.015Z,26.73
2022-08-24T11:17:22.930Z,26.80
2022-08-24T11:18:22.913Z,26.84
2022-08-24T11:19:22.932Z,26.99
2022-08-24T11:20:22.893Z,27.23
2022-08-24T11:21:22.876Z,27.53
2022-08-24T11:22:22.914Z,27.77
2022-08-24T11:23:22.917Z,28.01
2022-08-24T11:24:22.845Z,28.22
2022-08-24T11:25:22.876Z,28.28
2022-08-24T11:26:22.819Z,27.95
2022-08-24T11:27:22.807Z,27.91
2022-08-24T11:28:22.796Z,27.79
2022-08-24T11:29:22.777Z,27.67
2022-08-24T11:30:22.795Z,27.42
2022-08-24T11:31:22.793Z,27.41
2022-08-24T11:32:22.736Z,27.36
2022-08-24T11:33:22.726Z,27.32
2022-08-24T11:34:22.706Z,27.24
2022-08-24T11:35:22.716Z,27.01
2022-08-24T11:36:22.687Z,26.80
2022-08-24T11:37:24.445Z,26.55
2022-08-24T11:38:22.659Z,26.54
2022-08-24T11:39:22.656Z,26.58
2022-08-24T11:40:22.765Z,26.64
2022-08-24T11:41:22.640Z,26.67
2022-08-24T11:42:27.458Z,26.67
2022-08-24T11:43:23.608Z,26.65
2022-08-24T11:44:22.590Z,26.67
2022-08-24T11:45:22.591Z,26.72
2022-08-24T11:46:22.841Z,26.73
2022-08-24T11:47:22.560Z,26.80
2022-08-24T11:48:26.852Z,26.98
2022-08-24T11:49:23.520Z,27.01
2022-08-24T11:50:22.519Z,27.01
2022-08-24T11:51:22.491Z,26.89
2022-08-24T11:52:22.492Z,26.91
2022-08-24T11:53:22.468Z,27.02
2022-08-24T11:54:22.471Z,27.10
2022-08-24T11:55:24.416Z,26.98
2022-08-24T11:56:25.697Z,26.77
2022-08-24T11:57:22.444Z,26.65
2022-08-24T11:58:22.414Z,26.87
2022-08-24T11:59:22.404Z,27.02
2022-08-24T12:00:22.392Z,27.10
2022-08-24T12:01:22.384Z,27.06
2022-08-24T12:02:22.442Z,27.04
2022-08-24T12:03:22.473Z,27.06
2022-08-24T12:04:22.323Z,27.05
2022-08-24T12:05:22.322Z,26.96
2022-08-24T12:06:22.303Z,26.91
2022-08-24T12:07:23.312Z,26.94
2022-08-24T12:08:22.377Z,26.98
2022-08-24T12:09:22.265Z,27.10
2022-08-24T12:10:24.253Z,27.35
2022-08-24T12:11:22.299Z,27.62
2022-08-24T12:12:22.310Z,27.71
2022-08-24T12:13:22.236Z,27.84
2022-08-24T12:14:22.216Z,28.06
2022-08-24T12:15:22.205Z,28.25
2022-08-24T12:16:22.260Z,28.40
2022-08-24T12:17:22.165Z,28.59
2022-08-24T12:18:22.216Z,28.47
2022-08-24T12:19:22.148Z,28.29
2022-08-24T12:20:22.140Z,28.28
2022-08-24T12:21:22.129Z,28.26
2022-08-24T12:22:22.128Z,28.23
2022-08-24T12:23:22.098Z,28.23
2022-08-24T12:24:22.113Z,28.33
2022-08-24T12:25:22.088Z,28.36
2022-08-24T12:26:22.069Z,28.41
2022-08-24T12:27:22.058Z,28.59
2022-08-24T12:28:22.028Z,28.53
2022-08-24T12:29:22.008Z,28.65
2022-08-24T12:30:22.018Z,28.81
2022-08-24T12:31:22.049Z,28.96
2022-08-24T12:32:21.979Z,29.10
2022-08-24T12:33:21.960Z,29.15
2022-08-24T12:34:21.950Z,29.31
2022-08-24T12:35:21.952Z,29.40
2022-08-24T12:36:21.984Z,29.33
2022-08-24T12:37:21.922Z,29.08
2022-08-24T12:38:21.914Z,28.80
2022-08-24T12:39:21.894Z,28.32
2022-08-24T12:40:21.939Z,27.98
2022-08-24T12:41:21.882Z,27.94
2022-08-24T12:42:21.872Z,28.03
2022-08-24T12:43:21.832Z,28.07
2022-08-24T12:44:21.890Z,28.01
2022-08-24T12:45:21.812Z,27.99
2022-08-24T12:46:21.902Z,27.99
2022-08-24T12:47:21.830Z,27.88
2022-08-24T12:48:21.781Z,27.91
2022-08-24T12:49:21.768Z,27.94
2022-08-24T12:50:25.118Z,27.89
2022-08-24T12:51:21.754Z,27.84
2022-08-24T12:52:21.733Z,27.89
2022-08-24T12:53:21.755Z,27.92
2022-08-24T12:54:21.707Z,27.92